KLAR/LAR METAR and TAF weather

Enter ICAO airport designator
Station Type Date Time Source
KLAR METAR 2018/12/11 17:53 UTC NOAA

KLAR 111753Z AUTO 28016KT 10SM CLR 01/M08 A3006 RMK AO2 PK WND 27037/1718 SLP176 T00061083 10006 21056 58001


Station Type Date Time Source
KLAR Decoded METAR 2018/12/11 17:53 UTC NOAA

LARAMIE REGIONAL AIRPORT, WY, United States (KLAR) 41-19N 105-40W 2216M
Dec 11, 2018 - 12:53 PM EST / 2018.12.11 1753 UTC
Wind: from the W (280 degrees) at 18 MPH (16 KT):0
Visibility: 10 mile(s):0
Sky conditions: clear
Temperature: 33.1 F (0.6 C)
Windchill: 21 F (-6 C):1
Dew Point: 17.1 F (-8.3 C)
Relative Humidity: 51%
Pressure (altimeter): 30.06 in. Hg (1017 hPa)
Pressure tendency: 0.00 inches (0.1 hPa) lower than three hours ago
ob: KLAR 111753Z AUTO 28016KT 10SM CLR 01/M08 A3006 RMK AO2 PK WND 27037/1718 SLP176 T00061083 10006 21056 58001
cycle: 18

Station Type Date Time Source
KLAR TAF 2018/12/11 18:22 UTC NOAA

TAF KLAR 111720Z 1118/1218 27024G32KT P6SM SKC
FM120100 25018G30KT P6SM BKN150
FM121600 25025G35KT P6SM BKN250


Example: see airport list